Time;durP1;ratioP1;P1;durP2;ratioP2;P2;SDS_P1;SDS_P2;PMS_P1;PMS_P2;Temp;Humidity;BMP_temperature;BMP_pressure;BME280_temperature;BME280_humidity;BME280_pressure;Samples;Min_cycle;Max_cycle;Signal;HPM_P1;HPM_P2
2021/05/27 00:01:32;;;;;;;1.85;0.40;;;;;;;;;;5009546;28;20021;-72
2021/05/27 00:04:00;;;;;;;1.65;0.30;;;;;;;;;;5010701;28;20040;-72
2021/05/27 00:06:27;;;;;;;6.22;0.82;;;;;;;;;;5012292;28;20022;-71
2021/05/27 00:08:54;;;;;;;3.85;0.60;;;;;;;;;;5012169;28;20022;-72
2021/05/27 00:11:21;;;;;;;4.88;0.60;;;;;;;;;;5009739;28;20075;-72
2021/05/27 00:13:48;;;;;;;2.42;0.65;;;;;;;;;;5008320;28;20058;-71
2021/05/27 00:16:15;;;;;;;7.05;0.70;;;;;;;;;;5011072;28;20487;-72
2021/05/27 00:18:42;;;;;;;4.18;0.63;;;;;;;;;;5007304;28;20045;-71
2021/05/27 00:21:09;;;;;;;2.53;0.40;;;;;;;;;;5011131;28;20534;-71
2021/05/27 00:23:36;;;;;;;4.60;0.50;;;;;;;;;;5010223;28;20034;-72
2021/05/27 00:26:03;;;;;;;4.40;0.60;;;;;;;;;;5004638;28;20026;-71
2021/05/27 00:28:30;;;;;;;4.50;0.82;;;;;;;;;;5004572;28;20753;-71
2021/05/27 00:30:58;;;;;;;4.05;0.57;;;;;;;;;;5011199;28;20026;-71
2021/05/27 00:33:25;;;;;;;3.33;0.65;;;;;;;;;;5007425;28;20054;-71
2021/05/27 00:35:52;;;;;;;3.45;0.50;;;;;;;;;;5002551;28;20026;-71
2021/05/27 00:38:19;;;;;;;5.70;0.70;;;;;;;;;;5007363;28;20030;-71
2021/05/27 00:40:46;;;;;;;3.10;0.50;;;;;;;;;;5006313;28;20062;-71
2021/05/27 00:43:13;;;;;;;3.92;0.75;;;;;;;;;;5006733;28;20081;-71
2021/05/27 00:45:40;;;;;;;4.28;0.60;;;;;;;;;;5009247;28;20080;-71
2021/05/27 00:48:07;;;;;;;3.38;0.52;;;;;;;;;;5010155;28;20022;-71
2021/05/27 00:50:34;;;;;;;4.07;0.88;;;;;;;;;;5011938;28;20079;-72
2021/05/27 00:53:01;;;;;;;3.88;0.98;;;;;;;;;;5009857;28;20502;-71
2021/05/27 00:55:29;;;;;;;3.78;0.35;;;;;;;;;;5012144;28;20034;-71
2021/05/27 00:57:56;;;;;;;3.53;0.90;;;;;;;;;;5009265;28;20018;-71
2021/05/27 01:00:25;;;;;;;3.03;0.85;;;;;;;;;;5011604;28;20045;-71
2021/05/27 01:02:53;;;;;;;3.30;0.50;;;;;;;;;;5010475;28;20053;-71
2021/05/27 01:05:21;;;;;;;10.77;1.23;;;;;;;;;;5021294;28;20060;-71
2021/05/27 01:07:49;;;;;;;9.57;0.85;;;;;;;;;;5018898;28;20181;-72
2021/05/27 01:10:16;;;;;;;4.05;0.70;;;;;;;;;;5009312;28;20121;-71
2021/05/27 01:12:43;;;;;;;2.55;0.40;;;;;;;;;;5006729;28;20028;-71
2021/05/27 01:17:58;;;;;;;4.78;0.60;;;;;;;;;;5011822;28;20099;-71
2021/05/27 01:20:25;;;;;;;5.32;0.75;;;;;;;;;;5031760;28;20028;-71
2021/05/27 01:22:53;;;;;;;4.13;0.93;;;;;;;;;;5015664;28;20029;-71
2021/05/27 01:25:20;;;;;;;1.92;0.50;;;;;;;;;;4992058;28;20034;-70
2021/05/27 01:27:47;;;;;;;2.78;0.93;;;;;;;;;;5008198;28;20093;-70
2021/05/27 01:30:15;;;;;;;3.53;1.08;;;;;;;;;;5011800;28;20104;-70
2021/05/27 01:32:42;;;;;;;5.05;0.70;;;;;;;;;;5007720;28;20382;-71
2021/05/27 01:35:14;;;;;;;4.78;0.75;;;;;;;;;;5014897;28;20111;-71
2021/05/27 01:37:41;;;;;;;3.92;0.68;;;;;;;;;;5013016;28;20029;-71
2021/05/27 01:40:09;;;;;;;4.40;0.77;;;;;;;;;;5015385;28;20050;-71
2021/05/27 01:42:36;;;;;;;2.42;0.40;;;;;;;;;;5012948;28;20033;-70
2021/05/27 01:45:04;;;;;;;3.85;0.65;;;;;;;;;;5009690;28;20053;-71
2021/05/27 01:47:31;;;;;;;4.03;0.73;;;;;;;;;;5012831;28;20025;-71
2021/05/27 01:49:58;;;;;;;3.17;0.75;;;;;;;;;;5010820;28;20522;-73
2021/05/27 01:52:25;;;;;;;3.97;0.43;;;;;;;;;;5009645;28;20022;-72
2021/05/27 01:54:52;;;;;;;4.85;0.40;;;;;;;;;;5012055;28;20052;-71
2021/05/27 01:57:19;;;;;;;9.68;0.80;;;;;;;;;;5011551;28;20030;-71
2021/05/27 01:59:46;;;;;;;4.50;0.50;;;;;;;;;;5011691;28;20029;-71
2021/05/27 02:02:14;;;;;;;5.90;0.50;;;;;;;;;;5007401;28;20372;-71
2021/05/27 02:04:41;;;;;;;3.85;0.35;;;;;;;;;;5017366;28;20153;-72
2021/05/27 02:07:12;;;;;;;4.72;0.40;;;;;;;;;;5013258;28;20518;-72
2021/05/27 02:09:39;;;;;;;1.65;0.40;;;;;;;;;;5008271;28;20070;-71
2021/05/27 02:12:07;;;;;;;3.95;0.82;;;;;;;;;;5003464;28;20028;-72
2021/05/27 02:14:35;;;;;;;2.78;0.40;;;;;;;;;;5012753;28;20061;-72
2021/05/27 02:17:02;;;;;;;4.10;0.68;;;;;;;;;;5007664;28;20021;-71
2021/05/27 02:19:29;;;;;;;2.35;0.38;;;;;;;;;;5012024;28;20041;-72
2021/05/27 02:21:56;;;;;;;2.92;0.88;;;;;;;;;;5012971;28;20018;-72
2021/05/27 02:24:23;;;;;;;3.28;0.30;;;;;;;;;;5013891;28;20113;-72
2021/05/27 02:26:50;;;;;;;2.50;0.30;;;;;;;;;;5011995;28;20053;-72
2021/05/27 02:29:17;;;;;;;2.15;0.60;;;;;;;;;;5010593;28;20022;-72
2021/05/27 02:31:44;;;;;;;2.05;0.50;;;;;;;;;;5008547;28;20026;-72
2021/05/27 02:34:11;;;;;;;2.92;0.30;;;;;;;;;;5012257;28;20388;-72
2021/05/27 02:36:39;;;;;;;3.20;0.38;;;;;;;;;;5011720;28;20473;-72
2021/05/27 02:39:07;;;;;;;3.35;1.25;;;;;;;;;;5014202;28;20030;-72
2021/05/27 02:41:34;;;;;;;2.22;0.40;;;;;;;;;;5011077;28;20038;-73
2021/05/27 02:44:01;;;;;;;4.13;0.65;;;;;;;;;;5013057;28;20041;-71
2021/05/27 02:46:28;;;;;;;4.93;0.90;;;;;;;;;;5006167;28;20021;-72
2021/05/27 02:48:55;;;;;;;3.05;0.47;;;;;;;;;;5011816;28;20022;-72
2021/05/27 02:51:23;;;;;;;3.47;0.52;;;;;;;;;;5012992;28;20029;-72
2021/05/27 02:53:50;;;;;;;3.17;0.70;;;;;;;;;;5008989;28;20034;-71
2021/05/27 02:56:17;;;;;;;1.33;0.40;;;;;;;;;;5013222;28;20018;-72
2021/05/27 02:58:44;;;;;;;3.30;1.00;;;;;;;;;;5010114;28;20026;-72
2021/05/27 03:01:12;;;;;;;2.78;1.00;;;;;;;;;;5004662;28;20029;-73
2021/05/27 03:03:39;;;;;;;7.63;4.65;;;;;;;;;;5011122;28;20021;-72
2021/05/27 03:06:06;;;;;;;3.15;0.88;;;;;;;;;;5012245;28;20026;-72
2021/05/27 03:08:34;;;;;;;2.03;0.40;;;;;;;;;;5010815;28;20041;-73
2021/05/27 03:11:01;;;;;;;2.45;0.30;;;;;;;;;;5004405;28;20033;-73
2021/05/27 03:13:28;;;;;;;1.40;0.40;;;;;;;;;;5009519;28;20105;-73
2021/05/27 03:15:56;;;;;;;2.38;0.63;;;;;;;;;;5011743;28;20026;-73
2021/05/27 03:18:23;;;;;;;2.20;0.40;;;;;;;;;;5006947;28;20032;-72
2021/05/27 03:20:50;;;;;;;3.35;0.60;;;;;;;;;;5010490;28;20101;-72
2021/05/27 03:23:17;;;;;;;2.95;0.60;;;;;;;;;;5009665;28;20427;-72
2021/05/27 03:25:44;;;;;;;1.00;0.28;;;;;;;;;;5009118;28;20029;-72
2021/05/27 03:28:11;;;;;;;2.97;0.30;;;;;;;;;;5009620;28;20034;-72
2021/05/27 03:30:38;;;;;;;3.20;0.30;;;;;;;;;;5010079;28;20026;-72
2021/05/27 03:33:06;;;;;;;2.20;0.50;;;;;;;;;;5011250;28;20030;-70
2021/05/27 03:35:33;;;;;;;4.03;0.90;;;;;;;;;;5012223;28;20176;-71
2021/05/27 03:38:00;;;;;;;0.68;0.20;;;;;;;;;;5011478;28;20113;-72
2021/05/27 03:40:27;;;;;;;2.03;0.38;;;;;;;;;;5012359;28;20033;-70
2021/05/27 03:42:55;;;;;;;2.22;0.20;;;;;;;;;;5009862;28;20394;-70
2021/05/27 03:45:26;;;;;;;1.98;0.30;;;;;;;;;;5012675;28;20824;-71
2021/05/27 03:47:54;;;;;;;1.58;0.30;;;;;;;;;;5001753;28;20030;-71
2021/05/27 03:50:23;;;;;;;1.42;0.40;;;;;;;;;;5000361;28;20727;-71
2021/05/27 03:52:50;;;;;;;2.53;0.30;;;;;;;;;;5010797;28;20022;-71
2021/05/27 03:55:18;;;;;;;1.45;0.30;;;;;;;;;;5011079;28;20133;-71
2021/05/27 03:57:45;;;;;;;1.88;0.55;;;;;;;;;;5011327;28;20522;-70
2021/05/27 04:03:03;;;;;;;1.13;0.20;;;;;;;;;;5007936;28;20094;-70
2021/05/27 04:08:15;;;;;;;1.85;0.35;;;;;;;;;;5010650;28;20061;-71
2021/05/27 04:10:43;;;;;;;1.70;0.20;;;;;;;;;;5012765;28;20065;-71
2021/05/27 04:13:10;;;;;;;2.85;0.20;;;;;;;;;;5010991;28;20388;-71
2021/05/27 04:15:38;;;;;;;4.72;0.47;;;;;;;;;;5004381;28;20026;-72
2021/05/27 04:18:08;;;;;;;1.75;0.30;;;;;;;;;;5008217;28;20095;-72
2021/05/27 04:20:55;;;;;;;2.53;0.40;;;;;;;;;;5012453;28;20100;-72
2021/05/27 04:23:34;;;;;;;2.83;0.63;;;;;;;;;;5010262;28;20172;-71
2021/05/27 04:26:08;;;;;;;2.42;0.35;;;;;;;;;;5012456;28;20018;-70
2021/05/27 04:28:37;;;;;;;1.10;0.63;;;;;;;;;;5010165;28;20026;-72
2021/05/27 04:31:12;;;;;;;4.70;1.60;;;;;;;;;;5012749;28;20046;-71
2021/05/27 04:33:40;;;;;;;2.70;0.40;;;;;;;;;;5009862;28;20100;-71
2021/05/27 04:36:11;;;;;;;3.20;0.90;;;;;;;;;;5012629;28;20474;-71
2021/05/27 04:38:41;;;;;;;3.23;0.20;;;;;;;;;;5006346;28;20046;-71
2021/05/27 04:41:09;;;;;;;1.40;0.10;;;;;;;;;;5012202;28;20097;-70
2021/05/27 04:43:38;;;;;;;1.35;0.20;;;;;;;;;;5009487;28;20050;-71
2021/05/27 04:46:06;;;;;;;1.30;0.20;;;;;;;;;;5012201;28;20034;-71
2021/05/27 04:48:33;;;;;;;0.82;0.13;;;;;;;;;;5008672;28;20022;-71
2021/05/27 04:51:00;;;;;;;2.15;0.15;;;;;;;;;;5012166;28;20569;-71
2021/05/27 04:53:27;;;;;;;2.70;0.10;;;;;;;;;;5008305;28;20026;-71
2021/05/27 04:55:55;;;;;;;2.05;0.30;;;;;;;;;;5008827;28;20028;-71
2021/05/27 04:58:23;;;;;;;1.08;0.45;;;;;;;;;;5009986;28;20112;-70
2021/05/27 05:00:50;;;;;;;1.23;0.20;;;;;;;;;;5009867;28;20053;-71
2021/05/27 05:03:18;;;;;;;0.95;0.20;;;;;;;;;;5008793;28;20030;-70
2021/05/27 05:05:45;;;;;;;1.27;0.20;;;;;;;;;;5014282;28;20049;-71
2021/05/27 05:08:12;;;;;;;1.88;0.30;;;;;;;;;;5014449;28;20535;-70
2021/05/27 05:10:42;;;;;;;1.42;0.20;;;;;;;;;;5016139;28;20080;-71
2021/05/27 05:13:09;;;;;;;0.77;0.20;;;;;;;;;;5013903;28;20048;-71
2021/05/27 05:15:37;;;;;;;3.53;0.30;;;;;;;;;;5010918;28;20033;-70
2021/05/27 05:18:08;;;;;;;1.55;0.22;;;;;;;;;;5013843;28;20030;-72
2021/05/27 05:20:39;;;;;;;2.15;0.40;;;;;;;;;;5013881;28;20088;-71
2021/05/27 05:23:06;;;;;;;1.48;0.38;;;;;;;;;;5010616;28;20153;-70
2021/05/27 05:25:35;;;;;;;2.80;0.32;;;;;;;;;;5015370;28;20030;-71
2021/05/27 05:28:02;;;;;;;1.55;0.10;;;;;;;;;;5013818;28;20026;-70
2021/05/27 05:30:29;;;;;;;1.33;0.20;;;;;;;;;;5015336;28;20116;-71
2021/05/27 05:32:57;;;;;;;1.05;0.10;;;;;;;;;;5013060;28;20581;-71
2021/05/27 05:35:25;;;;;;;1.67;0.52;;;;;;;;;;5015409;28;20042;-70
2021/05/27 05:37:52;;;;;;;2.85;0.88;;;;;;;;;;5012914;28;20053;-70
2021/05/27 05:40:21;;;;;;;1.52;0.52;;;;;;;;;;5015289;28;20022;-72
2021/05/27 05:42:48;;;;;;;2.67;0.20;;;;;;;;;;5012928;28;20421;-69
2021/05/27 05:45:16;;;;;;;2.13;0.40;;;;;;;;;;5015478;28;20026;-71
2021/05/27 05:47:47;;;;;;;2.00;0.20;;;;;;;;;;5011155;28;20033;-70
2021/05/27 05:50:44;;;;;;;1.38;0.32;;;;;;;;;;4998193;28;20383;-70
2021/05/27 05:53:02;;;;;;;1.90;0.45;;;;;;;;;;5008187;28;20030;-70
2021/05/27 05:55:29;;;;;;;1.35;0.15;;;;;;;;;;4997781;28;20038;-70
2021/05/27 05:57:56;;;;;;;0.80;0.10;;;;;;;;;;5005678;28;20427;-70
2021/05/27 06:00:23;;;;;;;1.35;0.28;;;;;;;;;;5013941;28;20077;-70
2021/05/27 06:02:50;;;;;;;3.53;0.32;;;;;;;;;;5012901;28;20021;-70
2021/05/27 06:05:17;;;;;;;2.30;0.65;;;;;;;;;;5014150;28;20201;-70
2021/05/27 06:07:44;;;;;;;1.35;0.10;;;;;;;;;;5012947;28;20049;-71
2021/05/27 06:10:12;;;;;;;1.02;0.10;;;;;;;;;;5014832;28;20034;-71
2021/05/27 06:12:39;;;;;;;1.17;0.20;;;;;;;;;;5012491;28;20128;-70
2021/05/27 06:15:09;;;;;;;1.50;0.20;;;;;;;;;;5012833;28;20391;-71
2021/05/27 06:17:37;;;;;;;0.88;0.28;;;;;;;;;;5003310;28;20030;-70
2021/05/27 06:20:04;;;;;;;1.55;0.70;;;;;;;;;;4995079;28;20029;-71
2021/05/27 06:22:31;;;;;;;1.50;0.20;;;;;;;;;;5001327;28;20029;-70
2021/05/27 06:25:00;;;;;;;2.45;0.30;;;;;;;;;;5013045;28;20509;-71
2021/05/27 06:27:27;;;;;;;2.50;0.30;;;;;;;;;;5012343;28;20029;-71
2021/05/27 06:29:55;;;;;;;2.15;0.38;;;;;;;;;;5011906;28;20017;-71
2021/05/27 06:32:22;;;;;;;3.10;0.65;;;;;;;;;;5012850;28;20018;-71
2021/05/27 06:34:50;;;;;;;2.80;0.38;;;;;;;;;;5013205;28;20483;-71
2021/05/27 06:37:17;;;;;;;2.72;0.20;;;;;;;;;;5011376;28;20029;-71
2021/05/27 06:39:45;;;;;;;2.20;0.45;;;;;;;;;;5012143;28;20029;-71
2021/05/27 06:42:13;;;;;;;3.25;0.57;;;;;;;;;;5003884;28;20080;-72
2021/05/27 06:44:40;;;;;;;5.32;0.50;;;;;;;;;;5008013;28;20081;-71
2021/05/27 06:47:07;;;;;;;2.55;0.40;;;;;;;;;;5011029;28;20088;-71
2021/05/27 06:49:35;;;;;;;2.75;0.50;;;;;;;;;;5009273;28;20117;-71
2021/05/27 06:52:02;;;;;;;3.35;0.57;;;;;;;;;;5010888;28;20025;-70
2021/05/27 06:54:30;;;;;;;2.40;0.40;;;;;;;;;;5002774;28;20143;-71
2021/05/27 06:56:58;;;;;;;3.45;0.73;;;;;;;;;;5003453;28;20026;-70
2021/05/27 06:59:25;;;;;;;3.10;0.57;;;;;;;;;;5010946;28;20589;-70
2021/05/27 07:01:52;;;;;;;3.45;0.60;;;;;;;;;;5010326;28;20145;-71
2021/05/27 07:04:19;;;;;;;2.15;0.60;;;;;;;;;;5012086;28;20049;-71
2021/05/27 07:06:46;;;;;;;2.35;0.50;;;;;;;;;;5008626;28;20104;-71
2021/05/27 07:09:14;;;;;;;4.80;0.70;;;;;;;;;;5009475;28;20026;-71
2021/05/27 07:11:41;;;;;;;2.85;0.60;;;;;;;;;;5011662;28;20081;-71
2021/05/27 07:14:09;;;;;;;5.22;1.42;;;;;;;;;;5009128;28;20049;-70
2021/05/27 07:16:36;;;;;;;4.70;0.43;;;;;;;;;;4997955;28;20018;-71
2021/05/27 07:19:04;;;;;;;2.42;0.68;;;;;;;;;;5002462;28;20030;-72
2021/05/27 07:21:31;;;;;;;2.50;0.65;;;;;;;;;;5008478;28;20053;-71
2021/05/27 07:23:58;;;;;;;2.88;0.60;;;;;;;;;;5012364;28;20103;-70
2021/05/27 07:26:25;;;;;;;4.88;0.70;;;;;;;;;;5006831;28;20045;-70
2021/05/27 07:28:52;;;;;;;4.28;0.50;;;;;;;;;;4998382;28;20482;-71
2021/05/27 07:31:20;;;;;;;4.15;1.08;;;;;;;;;;5009324;28;20060;-70
2021/05/27 07:33:47;;;;;;;2.63;0.65;;;;;;;;;;5007267;28;20014;-71
2021/05/27 07:36:14;;;;;;;3.25;0.60;;;;;;;;;;5008368;28;20414;-70
2021/05/27 07:38:41;;;;;;;2.03;0.50;;;;;;;;;;5003459;28;20034;-70
2021/05/27 07:41:09;;;;;;;2.55;0.50;;;;;;;;;;5009792;28;20053;-71
2021/05/27 07:43:36;;;;;;;4.28;0.47;;;;;;;;;;5007560;28;20048;-71
2021/05/27 07:46:04;;;;;;;2.45;0.40;;;;;;;;;;5009463;28;20028;-71
2021/05/27 07:48:31;;;;;;;5.38;0.73;;;;;;;;;;5010282;28;20474;-70
2021/05/27 07:50:58;;;;;;;1.90;0.47;;;;;;;;;;5009637;28;20022;-71
2021/05/27 07:53:26;;;;;;;1.65;0.50;;;;;;;;;;5008739;28;20018;-71
2021/05/27 07:55:53;;;;;;;3.28;0.50;;;;;;;;;;5001487;28;20394;-71
2021/05/27 07:58:20;;;;;;;2.08;0.60;;;;;;;;;;5006203;28;20041;-70
2021/05/27 08:00:48;;;;;;;5.05;1.42;;;;;;;;;;5007874;28;20029;-70
2021/05/27 08:03:15;;;;;;;7.50;4.15;;;;;;;;;;4999695;28;20034;-69
2021/05/27 08:05:42;;;;;;;3.47;1.30;;;;;;;;;;5023619;28;20033;-70
2021/05/27 08:08:09;;;;;;;8.10;4.97;;;;;;;;;;5009789;28;20022;-71
2021/05/27 08:10:36;;;;;;;4.47;2.35;;;;;;;;;;5010779;28;20030;-70
2021/05/27 08:13:03;;;;;;;6.18;2.17;;;;;;;;;;5009155;28;20022;-72
2021/05/27 08:15:30;;;;;;;4.88;0.98;;;;;;;;;;5003405;28;20034;-71
2021/05/27 08:17:57;;;;;;;3.90;0.60;;;;;;;;;;5004613;28;20383;-71
2021/05/27 08:20:24;;;;;;;5.05;0.90;;;;;;;;;;5008759;28;20049;-71
2021/05/27 08:22:52;;;;;;;1.25;0.45;;;;;;;;;;5010157;28;20513;-71
2021/05/27 08:25:19;;;;;;;2.50;1.13;;;;;;;;;;5008164;28;20506;-70
2021/05/27 08:27:46;;;;;;;5.68;2.97;;;;;;;;;;5008742;28;20045;-72
2021/05/27 08:30:13;;;;;;;4.82;1.70;;;;;;;;;;5009370;28;20022;-71
2021/05/27 08:32:41;;;;;;;3.50;1.10;;;;;;;;;;5008547;28;20483;-70
2021/05/27 08:35:08;;;;;;;1.88;0.80;;;;;;;;;;5010894;28;20042;-72
2021/05/27 08:37:35;;;;;;;3.60;0.80;;;;;;;;;;5005407;28;20024;-71
2021/05/27 08:40:03;;;;;;;3.60;0.60;;;;;;;;;;5011412;28;20026;-70
2021/05/27 08:42:30;;;;;;;2.70;0.40;;;;;;;;;;5011702;28;20030;-71
2021/05/27 08:44:58;;;;;;;4.90;1.02;;;;;;;;;;5015605;28;20050;-70
2021/05/27 08:47:25;;;;;;;7.18;3.65;;;;;;;;;;5011863;28;20018;-70
2021/05/27 08:49:54;;;;;;;16.13;8.25;;;;;;;;;;5015112;28;20049;-70
2021/05/27 08:52:21;;;;;;;9.93;6.78;;;;;;;;;;5014082;28;20064;-70
2021/05/27 08:54:48;;;;;;;8.27;4.78;;;;;;;;;;5015390;28;20390;-70
2021/05/27 08:57:15;;;;;;;7.43;3.03;;;;;;;;;;5009254;28;20048;-71
2021/05/27 08:59:42;;;;;;;4.70;1.38;;;;;;;;;;5014668;28;20120;-70
2021/05/27 09:02:10;;;;;;;5.70;3.17;;;;;;;;;;5013932;28;20022;-71
2021/05/27 09:04:39;;;;;;;8.15;6.07;;;;;;;;;;5015289;28;20555;-70
2021/05/27 09:07:06;;;;;;;6.63;3.35;;;;;;;;;;5011573;28;20017;-71
2021/05/27 09:09:52;;;;;;;6.53;3.58;;;;;;;;;;5013656;28;20037;-71
2021/05/27 09:12:28;;;;;;;4.32;1.45;;;;;;;;;;5000694;28;20076;-69
2021/05/27 09:14:55;;;;;;;4.03;1.55;;;;;;;;;;5012300;28;20034;-70
2021/05/27 09:17:23;;;;;;;4.90;4.40;;;;;;;;;;5009303;28;20026;-70
2021/05/27 09:20:10;;;;;;;8.15;1.92;;;;;;;;;;5013376;28;20525;-70
2021/05/27 09:22:37;;;;;;;3.53;1.30;;;;;;;;;;5013330;28;20017;-71
2021/05/27 09:25:04;;;;;;;4.25;0.82;;;;;;;;;;5015096;28;20946;-71
2021/05/27 09:27:49;;;;;;;3.90;0.98;;;;;;;;;;5008941;28;20056;-70
2021/05/27 09:30:16;;;;;;;3.13;0.47;;;;;;;;;;5008845;28;20029;-69
2021/05/27 09:32:47;;;;;;;5.30;0.90;;;;;;;;;;5009423;28;20045;-69
2021/05/27 09:35:15;;;;;;;8.07;1.15;;;;;;;;;;5011208;28;20030;-69
2021/05/27 09:37:52;;;;;;;4.38;1.10;;;;;;;;;;5012642;28;20449;-69
2021/05/27 09:40:33;;;;;;;5.30;1.13;;;;;;;;;;5014105;28;20128;-69
2021/05/27 09:43:01;;;;;;;2.58;0.40;;;;;;;;;;5011405;28;20086;-69
2021/05/27 09:45:29;;;;;;;2.03;0.60;;;;;;;;;;5013542;28;20022;-68
2021/05/27 09:47:56;;;;;;;2.63;0.52;;;;;;;;;;5013791;28;20441;-69
2021/05/27 09:50:31;;;;;;;3.65;0.95;;;;;;;;;;5005359;28;20029;-69
2021/05/27 09:53:12;;;;;;;2.15;0.70;;;;;;;;;;5012962;28;20496;-69
2021/05/27 09:55:39;;;;;;;8.13;3.55;;;;;;;;;;5014579;28;20041;-69
2021/05/27 09:58:10;;;;;;;6.78;4.70;;;;;;;;;;5013434;28;20072;-69
2021/05/27 10:00:37;;;;;;;5.32;2.40;;;;;;;;;;5013115;28;20028;-68
2021/05/27 10:03:33;;;;;;;4.68;1.13;;;;;;;;;;5009079;28;20026;-69
2021/05/27 10:06:02;;;;;;;2.63;0.70;;;;;;;;;;4996439;28;20128;-69
2021/05/27 10:08:30;;;;;;;6.68;1.35;;;;;;;;;;5008247;28;20531;-69
2021/05/27 10:10:58;;;;;;;4.22;0.70;;;;;;;;;;5012964;28;20072;-68
2021/05/27 10:13:27;;;;;;;7.38;0.68;;;;;;;;;;5009825;28;20092;-69
2021/05/27 10:15:55;;;;;;;4.57;0.88;;;;;;;;;;5012088;28;20034;-68
2021/05/27 10:18:23;;;;;;;3.90;1.23;;;;;;;;;;5011744;28;20018;-69
2021/05/27 10:20:51;;;;;;;4.75;1.60;;;;;;;;;;5013894;28;20028;-69
2021/05/27 10:23:18;;;;;;;6.88;2.58;;;;;;;;;;5012904;28;20037;-69
2021/05/27 10:25:46;;;;;;;4.18;1.15;;;;;;;;;;5014238;28;20414;-69
2021/05/27 10:28:17;;;;;;;7.90;1.30;;;;;;;;;;5012118;28;20044;-69
2021/05/27 10:30:46;;;;;;;7.07;1.92;;;;;;;;;;5012526;28;20029;-70
2021/05/27 10:33:18;;;;;;;4.82;1.45;;;;;;;;;;5011863;28;20394;-70
2021/05/27 10:35:50;;;;;;;3.88;0.47;;;;;;;;;;5013977;28;20387;-69
2021/05/27 10:38:18;;;;;;;3.92;0.63;;;;;;;;;;5011530;28;20548;-68
2021/05/27 10:40:49;;;;;;;6.72;1.30;;;;;;;;;;5013185;28;20033;-68
2021/05/27 10:43:17;;;;;;;3.45;1.35;;;;;;;;;;5009954;28;20204;-69
2021/05/27 10:45:56;;;;;;;4.40;1.25;;;;;;;;;;5004881;28;20112;-69
2021/05/27 10:48:26;;;;;;;3.60;1.10;;;;;;;;;;5003051;28;20033;-69
2021/05/27 10:50:57;;;;;;;3.13;1.20;;;;;;;;;;5007110;28;20163;-69
2021/05/27 10:53:43;;;;;;;5.75;1.25;;;;;;;;;;5011762;28;20108;-70
2021/05/27 10:56:11;;;;;;;6.78;1.00;;;;;;;;;;5011780;28;20453;-69
2021/05/27 10:58:53;;;;;;;1.08;0.40;;;;;;;;;;5011276;28;20101;-69
2021/05/27 11:01:37;;;;;;;3.60;0.70;;;;;;;;;;5011193;28;20118;-69
2021/05/27 11:04:05;;;;;;;3.15;1.20;;;;;;;;;;5010899;28;20045;-69
2021/05/27 11:06:39;;;;;;;4.13;0.82;;;;;;;;;;5011306;28;20026;-69
2021/05/27 11:09:10;;;;;;;3.30;0.60;;;;;;;;;;5013061;28;20029;-69
2021/05/27 11:11:41;;;;;;;2.85;0.70;;;;;;;;;;5008239;28;20064;-70
2021/05/27 11:14:26;;;;;;;3.42;0.63;;;;;;;;;;5007452;28;20030;-69
2021/05/27 11:16:53;;;;;;;;;;;;;;;;;;5009943;28;20418;-70
2021/05/27 11:20:05;;;;;;;2.45;0.65;;;;;;;;;;5013421;28;20318;-69
2021/05/27 11:22:38;;;;;;;4.32;0.70;;;;;;;;;;5004754;28;20040;-69
2021/05/27 11:25:19;;;;;;;2.80;0.63;;;;;;;;;;5012795;28;20022;-70
2021/05/27 11:27:52;;;;;;;2.78;0.60;;;;;;;;;;5006741;28;20022;-69
2021/05/27 11:30:21;;;;;;;3.33;0.90;;;;;;;;;;5009627;28;20474;-69
2021/05/27 11:32:49;;;;;;;2.17;0.43;;;;;;;;;;5009072;28;20110;-70
2021/05/27 11:35:17;;;;;;;4.75;0.50;;;;;;;;;;5010401;28;20359;-71
2021/05/27 11:37:45;;;;;;;3.63;0.60;;;;;;;;;;5005283;28;20014;-70
2021/05/27 11:40:13;;;;;;;5.22;0.65;;;;;;;;;;5008287;28;20382;-70
2021/05/27 11:42:41;;;;;;;2.15;0.43;;;;;;;;;;5006878;28;20498;-69
2021/05/27 11:45:10;;;;;;;3.50;0.60;;;;;;;;;;5011171;28;20037;-70
2021/05/27 11:47:37;;;;;;;2.45;0.80;;;;;;;;;;5010778;28;20026;-70
2021/05/27 11:50:12;;;;;;;2.20;0.50;;;;;;;;;;5012599;28;20026;-70
2021/05/27 11:52:39;;;;;;;2.70;0.57;;;;;;;;;;5006698;28;20530;-69
2021/05/27 11:55:08;;;;;;;2.03;0.43;;;;;;;;;;5008730;28;20079;-70
2021/05/27 11:57:42;;;;;;;3.33;0.50;;;;;;;;;;5008578;28;20018;-70
2021/05/27 12:00:10;;;;;;;4.00;0.75;;;;;;;;;;5006827;28;20025;-70
2021/05/27 12:02:54;;;;;;;2.20;0.50;;;;;;;;;;5008012;28;20033;-70
2021/05/27 12:05:24;;;;;;;2.28;0.60;;;;;;;;;;5005496;28;20037;-70
2021/05/27 12:08:00;;;;;;;1.23;0.47;;;;;;;;;;5008489;28;20101;-70
2021/05/27 12:10:29;;;;;;;2.47;0.60;;;;;;;;;;5009164;28;20032;-71
2021/05/27 12:12:56;;;;;;;2.55;0.80;;;;;;;;;;5006711;28;20100;-71
2021/05/27 12:15:24;;;;;;;5.22;0.60;;;;;;;;;;5008869;28;20037;-71
2021/05/27 12:17:53;;;;;;;1.58;0.60;;;;;;;;;;5005048;28;20022;-71
2021/05/27 12:20:30;;;;;;;2.92;1.02;;;;;;;;;;5007213;28;20384;-71
2021/05/27 12:22:59;;;;;;;2.03;0.60;;;;;;;;;;5007939;28;20022;-70
2021/05/27 12:25:31;;;;;;;3.35;0.60;;;;;;;;;;5008659;28;20014;-71
2021/05/27 12:27:59;;;;;;;1.75;0.50;;;;;;;;;;5003181;28;20084;-71
2021/05/27 12:30:28;;;;;;;1.92;0.70;;;;;;;;;;5002456;28;20030;-71
2021/05/27 12:32:56;;;;;;;2.30;0.43;;;;;;;;;;5000915;28;20054;-71
2021/05/27 12:35:23;;;;;;;4.00;0.50;;;;;;;;;;4992535;28;20073;-71
2021/05/27 12:37:54;;;;;;;2.67;0.40;;;;;;;;;;5007716;28;20026;-71
2021/05/27 12:40:27;;;;;;;2.90;0.60;;;;;;;;;;5003977;28;20025;-71
2021/05/27 12:42:55;;;;;;;6.03;0.73;;;;;;;;;;5004726;28;20490;-71
2021/05/27 12:45:30;;;;;;;4.20;0.65;;;;;;;;;;5011633;28;20441;-71
2021/05/27 12:48:22;;;;;;;2.95;0.60;;;;;;;;;;5011189;28;20018;-71
2021/05/27 12:51:03;;;;;;;2.97;0.50;;;;;;;;;;5009171;28;20405;-71
2021/05/27 12:53:30;;;;;;;6.95;1.00;;;;;;;;;;5007873;28;20028;-71
2021/05/27 12:55:59;;;;;;;3.35;0.80;;;;;;;;;;5011126;28;20053;-71
2021/05/27 12:58:30;;;;;;;6.07;1.13;;;;;;;;;;5007001;28;20056;-71
2021/05/27 13:00:58;;;;;;;1.85;0.35;;;;;;;;;;5010852;28;20497;-71
2021/05/27 13:03:25;;;;;;;3.00;0.52;;;;;;;;;;5008675;28;20447;-71
2021/05/27 13:06:04;;;;;;;4.90;0.50;;;;;;;;;;5011052;28;20034;-71
2021/05/27 13:08:32;;;;;;;2.30;0.50;;;;;;;;;;5000888;28;20034;-71
2021/05/27 13:10:59;;;;;;;3.70;0.68;;;;;;;;;;5007316;28;20034;-71
2021/05/27 13:13:33;;;;;;;6.28;0.47;;;;;;;;;;5009230;28;20495;-71
2021/05/27 13:16:01;;;;;;;3.92;0.50;;;;;;;;;;5009790;28;20073;-71
2021/05/27 13:18:28;;;;;;;2.05;1.08;;;;;;;;;;5006237;28;20042;-70
2021/05/27 13:21:02;;;;;;;2.88;0.73;;;;;;;;;;5010977;28;20080;-71
2021/05/27 13:23:34;;;;;;;1.75;0.80;;;;;;;;;;5008049;28;20098;-71
2021/05/27 13:26:10;;;;;;;3.97;0.73;;;;;;;;;;5009565;28;20390;-72
2021/05/27 13:28:37;;;;;;;1.40;0.40;;;;;;;;;;5009683;28;20049;-71
2021/05/27 13:31:04;;;;;;;3.10;0.60;;;;;;;;;;5012085;28;20042;-71
2021/05/27 13:33:32;;;;;;;4.55;0.70;;;;;;;;;;5011732;28;20034;-71
2021/05/27 13:36:01;;;;;;;1.42;0.30;;;;;;;;;;5013222;28;20510;-71
2021/05/27 13:38:29;;;;;;;1.92;0.38;;;;;;;;;;5012257;28;20030;-71
2021/05/27 13:40:58;;;;;;;1.95;0.40;;;;;;;;;;5013024;28;20022;-71
2021/05/27 13:43:31;;;;;;;2.63;0.60;;;;;;;;;;5012011;28;20034;-71
2021/05/27 13:45:58;;;;;;;3.78;0.85;;;;;;;;;;5014390;28;20026;-71
2021/05/27 13:48:25;;;;;;;1.70;0.40;;;;;;;;;;5011416;28;20502;-71
2021/05/27 13:50:52;;;;;;;1.58;0.38;;;;;;;;;;5014247;28;20105;-71
2021/05/27 13:53:19;;;;;;;1.63;0.60;;;;;;;;;;5011256;28;20129;-71
2021/05/27 13:55:57;;;;;;;2.45;0.20;;;;;;;;;;5011868;28;20034;-72
2021/05/27 13:58:24;;;;;;;1.88;0.40;;;;;;;;;;5007532;28;20030;-71
2021/05/27 14:00:52;;;;;;;1.65;0.30;;;;;;;;;;5011171;28;20509;-71
2021/05/27 14:03:22;;;;;;;1.88;0.93;;;;;;;;;;5006448;28;20030;-72
2021/05/27 14:05:49;;;;;;;1.85;0.22;;;;;;;;;;5008082;28;20026;-72
2021/05/27 14:08:17;;;;;;;1.50;0.30;;;;;;;;;;5011604;28;20155;-71
2021/05/27 14:10:45;;;;;;;1.77;0.20;;;;;;;;;;5010673;28;20034;-72
2021/05/27 14:13:12;;;;;;;1.08;0.55;;;;;;;;;;5011736;28;20034;-71
2021/05/27 14:15:40;;;;;;;4.03;0.43;;;;;;;;;;5010387;28;20033;-71
2021/05/27 14:18:07;;;;;;;2.05;0.30;;;;;;;;;;5010465;28;20021;-71
2021/05/27 14:20:34;;;;;;;5.88;0.40;;;;;;;;;;5007123;28;20057;-71
2021/05/27 14:23:02;;;;;;;2.28;0.40;;;;;;;;;;5017484;28;20033;-71
2021/05/27 14:25:29;;;;;;;1.30;0.38;;;;;;;;;;4995385;28;20026;-72
2021/05/27 14:27:56;;;;;;;2.92;0.60;;;;;;;;;;5011915;28;20433;-72
2021/05/27 14:30:23;;;;;;;4.78;1.60;;;;;;;;;;5011440;28;20479;-72
2021/05/27 14:32:50;;;;;;;5.38;1.00;;;;;;;;;;5009507;28;20040;-71
2021/05/27 14:35:17;;;;;;;2.90;0.77;;;;;;;;;;5012470;28;20084;-72
2021/05/27 14:37:44;;;;;;;2.00;0.40;;;;;;;;;;5010290;28;20442;-71
2021/05/27 14:40:12;;;;;;;4.03;0.40;;;;;;;;;;5012778;28;20061;-71
2021/05/27 14:42:39;;;;;;;4.00;0.38;;;;;;;;;;5010642;28;20045;-71
2021/05/27 14:45:06;;;;;;;1.40;0.40;;;;;;;;;;5012627;28;20042;-73
2021/05/27 14:47:33;;;;;;;4.90;0.60;;;;;;;;;;5011009;28;20387;-72
2021/05/27 14:50:01;;;;;;;5.32;0.70;;;;;;;;;;5011948;28;20490;-71
2021/05/27 14:52:30;;;;;;;2.45;0.30;;;;;;;;;;5011790;28;20030;-71
2021/05/27 14:54:57;;;;;;;0.85;0.30;;;;;;;;;;5013346;28;20486;-72
2021/05/27 14:57:24;;;;;;;1.67;0.30;;;;;;;;;;5011833;28;20046;-72
2021/05/27 14:59:51;;;;;;;1.73;0.40;;;;;;;;;;5011623;28;20022;-72
2021/05/27 15:02:18;;;;;;;3.28;0.47;;;;;;;;;;5011745;28;20076;-71